sensor_id;sensor_type;location;lat;lon;timestamp;P1;durP1;ratioP1;P2;durP2;ratioP2
65039;SDS011;51606;45.000;38.612;2023-08-20T00:01:31;16.65;;;2.13;;
65039;SDS011;51606;45.000;38.612;2023-08-20T00:03:58;2.85;;;1.77;;
65039;SDS011;51606;45.000;38.612;2023-08-20T00:06:25;3.88;;;2.33;;
65039;SDS011;51606;45.000;38.612;2023-08-20T00:08:51;14.02;;;1.98;;
65039;SDS011;51606;45.000;38.612;2023-08-20T00:11:18;4.80;;;2.08;;
65039;SDS011;51606;45.000;38.612;2023-08-20T00:13:45;12.98;;;2.10;;
65039;SDS011;51606;45.000;38.612;2023-08-20T00:16:11;5.43;;;1.83;;
65039;SDS011;51606;45.000;38.612;2023-08-20T00:18:38;2.90;;;2.22;;
65039;SDS011;51606;45.000;38.612;2023-08-20T00:21:06;3.50;;;2.03;;
65039;SDS011;51606;45.000;38.612;2023-08-20T00:23:34;11.93;;;2.28;;
65039;SDS011;51606;45.000;38.612;2023-08-20T00:26:02;6.57;;;2.10;;
65039;SDS011;51606;45.000;38.612;2023-08-20T00:28:32;5.97;;;2.60;;
65039;SDS011;51606;45.000;38.612;2023-08-20T00:31:00;6.88;;;3.50;;
65039;SDS011;51606;45.000;38.612;2023-08-20T00:33:26;4.72;;;2.97;;
65039;SDS011;51606;45.000;38.612;2023-08-20T00:35:53;7.72;;;3.17;;
65039;SDS011;51606;45.000;38.612;2023-08-20T00:38:20;18.27;;;3.53;;
65039;SDS011;51606;45.000;38.612;2023-08-20T00:40:46;5.32;;;2.72;;
65039;SDS011;51606;45.000;38.612;2023-08-20T00:43:14;5.60;;;2.97;;
65039;SDS011;51606;45.000;38.612;2023-08-20T00:45:41;8.95;;;3.83;;
65039;SDS011;51606;45.000;38.612;2023-08-20T00:48:08;23.02;;;3.42;;
65039;SDS011;51606;45.000;38.612;2023-08-20T00:50:35;3.53;;;2.50;;
65039;SDS011;51606;45.000;38.612;2023-08-20T00:53:01;6.28;;;2.92;;
65039;SDS011;51606;45.000;38.612;2023-08-20T00:55:28;8.02;;;3.28;;
65039;SDS011;51606;45.000;38.612;2023-08-20T00:57:55;12.20;;;2.63;;
65039;SDS011;51606;45.000;38.612;2023-08-20T01:00:22;4.10;;;1.75;;
65039;SDS011;51606;45.000;38.612;2023-08-20T01:02:49;8.23;;;2.40;;
65039;SDS011;51606;45.000;38.612;2023-08-20T01:05:16;4.80;;;2.95;;
65039;SDS011;51606;45.000;38.612;2023-08-20T01:08:02;4.38;;;2.22;;
65039;SDS011;51606;45.000;38.612;2023-08-20T01:12:59;3.20;;;1.77;;
65039;SDS011;51606;45.000;38.612;2023-08-20T01:15:26;8.52;;;3.42;;
65039;SDS011;51606;45.000;38.612;2023-08-20T01:17:53;5.78;;;3.35;;
65039;SDS011;51606;45.000;38.612;2023-08-20T01:20:19;8.02;;;3.83;;
65039;SDS011;51606;45.000;38.612;2023-08-20T01:28:33;7.30;;;2.95;;
65039;SDS011;51606;45.000;38.612;2023-08-20T01:31:00;15.65;;;8.68;;
65039;SDS011;51606;45.000;38.612;2023-08-20T01:33:28;13.48;;;5.32;;
65039;SDS011;51606;45.000;38.612;2023-08-20T01:35:54;11.52;;;3.60;;
65039;SDS011;51606;45.000;38.612;2023-08-20T01:38:21;5.38;;;3.22;;
65039;SDS011;51606;45.000;38.612;2023-08-20T01:40:48;6.43;;;3.55;;
65039;SDS011;51606;45.000;38.612;2023-08-20T01:43:14;8.73;;;3.83;;
65039;SDS011;51606;45.000;38.612;2023-08-20T01:45:41;5.70;;;2.88;;
65039;SDS011;51606;45.000;38.612;2023-08-20T01:48:07;5.53;;;3.40;;
65039;SDS011;51606;45.000;38.612;2023-08-20T01:50:34;9.27;;;4.13;;
65039;SDS011;51606;45.000;38.612;2023-08-20T01:53:02;12.05;;;2.10;;
65039;SDS011;51606;45.000;38.612;2023-08-20T01:55:29;8.13;;;2.60;;
65039;SDS011;51606;45.000;38.612;2023-08-20T01:57:55;3.47;;;2.58;;
65039;SDS011;51606;45.000;38.612;2023-08-20T02:00:22;5.25;;;2.60;;
65039;SDS011;51606;45.000;38.612;2023-08-20T02:02:49;6.65;;;2.50;;
65039;SDS011;51606;45.000;38.612;2023-08-20T02:05:15;3.00;;;2.13;;
65039;SDS011;51606;45.000;38.612;2023-08-20T02:07:42;19.10;;;2.55;;
65039;SDS011;51606;45.000;38.612;2023-08-20T02:10:08;3.35;;;2.42;;
65039;SDS011;51606;45.000;38.612;2023-08-20T02:12:35;6.47;;;2.40;;
65039;SDS011;51606;45.000;38.612;2023-08-20T02:15:01;2.85;;;1.95;;
65039;SDS011;51606;45.000;38.612;2023-08-20T02:17:29;25.02;;;2.95;;
65039;SDS011;51606;45.000;38.612;2023-08-20T02:19:56;3.95;;;2.05;;
65039;SDS011;51606;45.000;38.612;2023-08-20T02:22:22;4.65;;;3.25;;
65039;SDS011;51606;45.000;38.612;2023-08-20T02:24:48;4.65;;;2.83;;
65039;SDS011;51606;45.000;38.612;2023-08-20T02:27:15;7.10;;;1.83;;
65039;SDS011;51606;45.000;38.612;2023-08-20T02:29:43;5.13;;;2.90;;
65039;SDS011;51606;45.000;38.612;2023-08-20T02:32:14;3.22;;;2.30;;
65039;SDS011;51606;45.000;38.612;2023-08-20T02:34:40;3.38;;;2.05;;
65039;SDS011;51606;45.000;38.612;2023-08-20T02:37:07;4.30;;;2.40;;
65039;SDS011;51606;45.000;38.612;2023-08-20T02:39:33;5.03;;;2.17;;
65039;SDS011;51606;45.000;38.612;2023-08-20T02:42:01;4.22;;;2.42;;
65039;SDS011;51606;45.000;38.612;2023-08-20T02:44:27;18.90;;;3.00;;
65039;SDS011;51606;45.000;38.612;2023-08-20T02:46:53;3.90;;;2.15;;
65039;SDS011;51606;45.000;38.612;2023-08-20T02:49:23;2.80;;;2.15;;
65039;SDS011;51606;45.000;38.612;2023-08-20T02:51:49;6.93;;;2.50;;
65039;SDS011;51606;45.000;38.612;2023-08-20T02:54:15;3.00;;;2.30;;
65039;SDS011;51606;45.000;38.612;2023-08-20T02:56:42;8.25;;;3.13;;
65039;SDS011;51606;45.000;38.612;2023-08-20T02:59:08;3.75;;;2.78;;
65039;SDS011;51606;45.000;38.612;2023-08-20T03:01:35;3.10;;;2.33;;
65039;SDS011;51606;45.000;38.612;2023-08-20T03:04:01;5.78;;;2.67;;
65039;SDS011;51606;45.000;38.612;2023-08-20T03:06:28;9.00;;;2.33;;
65039;SDS011;51606;45.000;38.612;2023-08-20T03:08:55;3.00;;;2.20;;
65039;SDS011;51606;45.000;38.612;2023-08-20T03:11:21;13.20;;;2.17;;
65039;SDS011;51606;45.000;38.612;2023-08-20T03:13:48;2.95;;;2.30;;
65039;SDS011;51606;45.000;38.612;2023-08-20T03:16:14;24.92;;;2.50;;
65039;SDS011;51606;45.000;38.612;2023-08-20T03:18:41;7.80;;;2.50;;
65039;SDS011;51606;45.000;38.612;2023-08-20T03:21:07;19.90;;;2.75;;
65039;SDS011;51606;45.000;38.612;2023-08-20T03:23:33;9.43;;;2.22;;
65039;SDS011;51606;45.000;38.612;2023-08-20T03:26:00;5.32;;;2.65;;
65039;SDS011;51606;45.000;38.612;2023-08-20T03:28:27;8.50;;;3.00;;
65039;SDS011;51606;45.000;38.612;2023-08-20T03:30:53;5.85;;;3.08;;
65039;SDS011;51606;45.000;38.612;2023-08-20T03:33:24;3.90;;;2.20;;
65039;SDS011;51606;45.000;38.612;2023-08-20T03:35:52;2.55;;;1.77;;
65039;SDS011;51606;45.000;38.612;2023-08-20T03:38:18;25.10;;;3.17;;
65039;SDS011;51606;45.000;38.612;2023-08-20T03:40:44;3.85;;;2.08;;
65039;SDS011;51606;45.000;38.612;2023-08-20T03:43:11;16.10;;;3.30;;
65039;SDS011;51606;45.000;38.612;2023-08-20T03:45:38;7.28;;;3.08;;
65039;SDS011;51606;45.000;38.612;2023-08-20T03:48:04;5.38;;;2.60;;
65039;SDS011;51606;45.000;38.612;2023-08-20T03:50:31;10.18;;;3.15;;
65039;SDS011;51606;45.000;38.612;2023-08-20T03:52:57;2.88;;;2.00;;
65039;SDS011;51606;45.000;38.612;2023-08-20T03:55:24;4.05;;;2.92;;
65039;SDS011;51606;45.000;38.612;2023-08-20T03:57:52;5.18;;;3.00;;
65039;SDS011;51606;45.000;38.612;2023-08-20T04:00:18;8.27;;;4.18;;
65039;SDS011;51606;45.000;38.612;2023-08-20T04:02:45;6.07;;;3.97;;
65039;SDS011;51606;45.000;38.612;2023-08-20T04:05:11;5.45;;;3.22;;
65039;SDS011;51606;45.000;38.612;2023-08-20T04:07:38;6.45;;;3.50;;
65039;SDS011;51606;45.000;38.612;2023-08-20T04:10:04;7.38;;;3.25;;
65039;SDS011;51606;45.000;38.612;2023-08-20T04:12:35;3.75;;;2.60;;
65039;SDS011;51606;45.000;38.612;2023-08-20T04:15:01;10.98;;;3.53;;
65039;SDS011;51606;45.000;38.612;2023-08-20T04:17:28;6.65;;;3.45;;
65039;SDS011;51606;45.000;38.612;2023-08-20T04:19:55;6.70;;;2.80;;
65039;SDS011;51606;45.000;38.612;2023-08-20T04:22:21;8.82;;;3.38;;
65039;SDS011;51606;45.000;38.612;2023-08-20T04:24:47;15.73;;;4.18;;
65039;SDS011;51606;45.000;38.612;2023-08-20T04:27:14;10.40;;;3.25;;
65039;SDS011;51606;45.000;38.612;2023-08-20T04:29:43;9.30;;;3.75;;
65039;SDS011;51606;45.000;38.612;2023-08-20T04:32:09;9.45;;;4.35;;
65039;SDS011;51606;45.000;38.612;2023-08-20T04:34:36;9.23;;;3.30;;
65039;SDS011;51606;45.000;38.612;2023-08-20T04:37:02;12.98;;;4.18;;
65039;SDS011;51606;45.000;38.612;2023-08-20T04:39:29;15.52;;;4.15;;
65039;SDS011;51606;45.000;38.612;2023-08-20T04:41:56;11.45;;;3.55;;
65039;SDS011;51606;45.000;38.612;2023-08-20T04:44:23;6.53;;;3.63;;
65039;SDS011;51606;45.000;38.612;2023-08-20T04:46:53;16.13;;;3.17;;
65039;SDS011;51606;45.000;38.612;2023-08-20T04:49:19;10.57;;;3.67;;
65039;SDS011;51606;45.000;38.612;2023-08-20T04:51:45;6.05;;;2.75;;
65039;SDS011;51606;45.000;38.612;2023-08-20T04:54:12;4.72;;;3.17;;
65039;SDS011;51606;45.000;38.612;2023-08-20T04:56:39;13.57;;;4.93;;
65039;SDS011;51606;45.000;38.612;2023-08-20T04:59:05;14.70;;;3.50;;
65039;SDS011;51606;45.000;38.612;2023-08-20T05:01:55;9.05;;;3.67;;
65039;SDS011;51606;45.000;38.612;2023-08-20T05:04:38;9.03;;;3.00;;
65039;SDS011;51606;45.000;38.612;2023-08-20T05:07:05;7.97;;;2.83;;
65039;SDS011;51606;45.000;38.612;2023-08-20T05:09:32;8.63;;;3.25;;
65039;SDS011;51606;45.000;38.612;2023-08-20T05:11:59;21.13;;;4.03;;
65039;SDS011;51606;45.000;38.612;2023-08-20T05:14:26;9.05;;;3.38;;
65039;SDS011;51606;45.000;38.612;2023-08-20T05:16:52;12.20;;;3.67;;
65039;SDS011;51606;45.000;38.612;2023-08-20T05:19:19;8.68;;;3.40;;
65039;SDS011;51606;45.000;38.612;2023-08-20T05:21:45;8.55;;;3.05;;
65039;SDS011;51606;45.000;38.612;2023-08-20T05:24:12;7.28;;;2.75;;
65039;SDS011;51606;45.000;38.612;2023-08-20T05:26:41;5.65;;;3.28;;
65039;SDS011;51606;45.000;38.612;2023-08-20T05:29:07;5.50;;;2.58;;
65039;SDS011;51606;45.000;38.612;2023-08-20T05:31:34;8.88;;;2.90;;
65039;SDS011;51606;45.000;38.612;2023-08-20T05:34:00;11.43;;;2.55;;
65039;SDS011;51606;45.000;38.612;2023-08-20T05:36:27;9.10;;;2.72;;
65039;SDS011;51606;45.000;38.612;2023-08-20T05:38:53;4.65;;;2.60;;
65039;SDS011;51606;45.000;38.612;2023-08-20T05:41:19;4.65;;;2.47;;
65039;SDS011;51606;45.000;38.612;2023-08-20T05:43:46;6.15;;;2.47;;
65039;SDS011;51606;45.000;38.612;2023-08-20T05:46:13;11.13;;;2.53;;
65039;SDS011;51606;45.000;38.612;2023-08-20T05:48:39;5.85;;;2.60;;
65039;SDS011;51606;45.000;38.612;2023-08-20T05:51:05;13.70;;;2.67;;
65039;SDS011;51606;45.000;38.612;2023-08-20T05:53:32;3.85;;;2.53;;
65039;SDS011;51606;45.000;38.612;2023-08-20T05:55:58;8.13;;;2.58;;
65039;SDS011;51606;45.000;38.612;2023-08-20T05:58:26;10.57;;;3.10;;
65039;SDS011;51606;45.000;38.612;2023-08-20T06:00:54;10.82;;;2.55;;
65039;SDS011;51606;45.000;38.612;2023-08-20T06:03:21;4.47;;;2.63;;
65039;SDS011;51606;45.000;38.612;2023-08-20T06:05:47;11.20;;;2.58;;
65039;SDS011;51606;45.000;38.612;2023-08-20T06:08:13;4.72;;;2.50;;
65039;SDS011;51606;45.000;38.612;2023-08-20T06:10:40;4.53;;;2.42;;
65039;SDS011;51606;45.000;38.612;2023-08-20T06:13:06;10.88;;;2.70;;
65039;SDS011;51606;45.000;38.612;2023-08-20T06:15:32;18.45;;;3.28;;
65039;SDS011;51606;45.000;38.612;2023-08-20T06:17:59;7.60;;;2.63;;
65039;SDS011;51606;45.000;38.612;2023-08-20T06:20:27;14.00;;;2.55;;
65039;SDS011;51606;45.000;38.612;2023-08-20T06:22:54;11.45;;;2.97;;
65039;SDS011;51606;45.000;38.612;2023-08-20T06:25:20;11.02;;;2.97;;
65039;SDS011;51606;45.000;38.612;2023-08-20T06:27:47;13.05;;;2.30;;
65039;SDS011;51606;45.000;38.612;2023-08-20T06:30:13;3.63;;;2.28;;
65039;SDS011;51606;45.000;38.612;2023-08-20T06:32:39;11.27;;;2.35;;
65039;SDS011;51606;45.000;38.612;2023-08-20T06:35:06;11.32;;;2.53;;
65039;SDS011;51606;45.000;38.612;2023-08-20T06:37:34;3.85;;;2.03;;
65039;SDS011;51606;45.000;38.612;2023-08-20T06:40:01;5.47;;;2.10;;
65039;SDS011;51606;45.000;38.612;2023-08-20T06:42:27;12.60;;;2.47;;
65039;SDS011;51606;45.000;38.612;2023-08-20T06:44:54;6.80;;;2.60;;
65039;SDS011;51606;45.000;38.612;2023-08-20T06:47:20;14.75;;;2.58;;
65039;SDS011;51606;45.000;38.612;2023-08-20T06:49:46;7.32;;;2.42;;
65039;SDS011;51606;45.000;38.612;2023-08-20T06:52:13;13.40;;;2.40;;
65039;SDS011;51606;45.000;38.612;2023-08-20T06:54:39;9.35;;;2.33;;
65039;SDS011;51606;45.000;38.612;2023-08-20T06:57:05;4.50;;;2.17;;
65039;SDS011;51606;45.000;38.612;2023-08-20T06:59:32;5.65;;;2.10;;
65039;SDS011;51606;45.000;38.612;2023-08-20T07:01:58;9.07;;;2.50;;
65039;SDS011;51606;45.000;38.612;2023-08-20T07:04:24;4.97;;;2.08;;
65039;SDS011;51606;45.000;38.612;2023-08-20T07:06:51;11.77;;;2.42;;
65039;SDS011;51606;45.000;38.612;2023-08-20T07:09:17;7.45;;;2.08;;
65039;SDS011;51606;45.000;38.612;2023-08-20T07:11:44;4.65;;;1.75;;
65039;SDS011;51606;45.000;38.612;2023-08-20T07:14:10;3.67;;;1.73;;
65039;SDS011;51606;45.000;38.612;2023-08-20T07:16:37;4.28;;;2.40;;
65039;SDS011;51606;45.000;38.612;2023-08-20T07:19:03;4.00;;;1.90;;
65039;SDS011;51606;45.000;38.612;2023-08-20T07:21:30;7.03;;;1.98;;
65039;SDS011;51606;45.000;38.612;2023-08-20T07:23:56;4.57;;;2.05;;
65039;SDS011;51606;45.000;38.612;2023-08-20T07:26:22;6.57;;;1.45;;
65039;SDS011;51606;45.000;38.612;2023-08-20T07:28:49;5.72;;;1.85;;
65039;SDS011;51606;45.000;38.612;2023-08-20T07:31:29;4.40;;;1.60;;
65039;SDS011;51606;45.000;38.612;2023-08-20T07:33:57;1.90;;;1.58;;
65039;SDS011;51606;45.000;38.612;2023-08-20T07:36:25;6.38;;;1.63;;
65039;SDS011;51606;45.000;38.612;2023-08-20T07:38:52;4.72;;;1.70;;
65039;SDS011;51606;45.000;38.612;2023-08-20T07:41:20;7.43;;;1.95;;
65039;SDS011;51606;45.000;38.612;2023-08-20T07:43:47;4.70;;;1.83;;
65039;SDS011;51606;45.000;38.612;2023-08-20T07:46:17;5.55;;;1.50;;
65039;SDS011;51606;45.000;38.612;2023-08-20T07:48:44;7.25;;;1.70;;
65039;SDS011;51606;45.000;38.612;2023-08-20T07:51:11;9.43;;;1.75;;
65039;SDS011;51606;45.000;38.612;2023-08-20T07:53:37;5.85;;;1.50;;
65039;SDS011;51606;45.000;38.612;2023-08-20T07:56:04;3.15;;;1.20;;
65039;SDS011;51606;45.000;38.612;2023-08-20T07:58:30;1.95;;;1.30;;
65039;SDS011;51606;45.000;38.612;2023-08-20T08:00:56;5.78;;;1.80;;
65039;SDS011;51606;45.000;38.612;2023-08-20T08:03:26;9.35;;;1.77;;
65039;SDS011;51606;45.000;38.612;2023-08-20T08:05:53;2.63;;;1.50;;
65039;SDS011;51606;45.000;38.612;2023-08-20T08:08:20;13.10;;;1.60;;
65039;SDS011;51606;45.000;38.612;2023-08-20T08:10:48;1.42;;;1.17;;
65039;SDS011;51606;45.000;38.612;2023-08-20T08:13:15;5.68;;;1.23;;
65039;SDS011;51606;45.000;38.612;2023-08-20T08:15:44;5.85;;;1.88;;
65039;SDS011;51606;45.000;38.612;2023-08-20T08:18:10;6.60;;;1.23;;
65039;SDS011;51606;45.000;38.612;2023-08-20T08:20:37;3.80;;;1.50;;
65039;SDS011;51606;45.000;38.612;2023-08-20T08:23:04;6.18;;;1.55;;
65039;SDS011;51606;45.000;38.612;2023-08-20T08:25:30;5.43;;;1.20;;
65039;SDS011;51606;45.000;38.612;2023-08-20T08:27:56;6.00;;;1.27;;
65039;SDS011;51606;45.000;38.612;2023-08-20T08:30:23;2.17;;;1.30;;
65039;SDS011;51606;45.000;38.612;2023-08-20T08:32:49;2.75;;;1.33;;
65039;SDS011;51606;45.000;38.612;2023-08-20T08:35:16;1.40;;;1.17;;
65039;SDS011;51606;45.000;38.612;2023-08-20T08:37:43;9.57;;;1.50;;
65039;SDS011;51606;45.000;38.612;2023-08-20T08:40:09;2.67;;;1.00;;
65039;SDS011;51606;45.000;38.612;2023-08-20T08:42:36;2.72;;;1.17;;
65039;SDS011;51606;45.000;38.612;2023-08-20T08:45:03;6.13;;;1.50;;
65039;SDS011;51606;45.000;38.612;2023-08-20T08:47:29;4.15;;;1.20;;
65039;SDS011;51606;45.000;38.612;2023-08-20T08:49:56;1.50;;;0.93;;
65039;SDS011;51606;45.000;38.612;2023-08-20T08:52:23;2.13;;;1.05;;
65039;SDS011;51606;45.000;38.612;2023-08-20T08:54:50;3.55;;;1.15;;
65039;SDS011;51606;45.000;38.612;2023-08-20T08:57:18;1.48;;;0.98;;
65039;SDS011;51606;45.000;38.612;2023-08-20T08:59:44;4.03;;;0.95;;
65039;SDS011;51606;45.000;38.612;2023-08-20T09:02:11;2.45;;;1.02;;
65039;SDS011;51606;45.000;38.612;2023-08-20T09:04:39;1.33;;;1.05;;
65039;SDS011;51606;45.000;38.612;2023-08-20T09:07:10;1.45;;;1.15;;
65039;SDS011;51606;45.000;38.612;2023-08-20T09:09:41;1.75;;;1.58;;
65039;SDS011;51606;45.000;38.612;2023-08-20T09:12:14;2.92;;;1.20;;
65039;SDS011;51606;45.000;38.612;2023-08-20T09:14:48;3.33;;;1.48;;
65039;SDS011;51606;45.000;38.612;2023-08-20T09:17:16;2.78;;;1.08;;
65039;SDS011;51606;45.000;38.612;2023-08-20T09:19:43;1.05;;;0.90;;
65039;SDS011;51606;45.000;38.612;2023-08-20T09:22:13;3.28;;;1.17;;
65039;SDS011;51606;45.000;38.612;2023-08-20T09:24:41;1.45;;;1.00;;
65039;SDS011;51606;45.000;38.612;2023-08-20T09:27:11;7.47;;;1.33;;
65039;SDS011;51606;45.000;38.612;2023-08-20T09:29:45;6.10;;;1.08;;
65039;SDS011;51606;45.000;38.612;2023-08-20T09:32:16;7.10;;;1.20;;
65039;SDS011;51606;45.000;38.612;2023-08-20T09:35:00;2.25;;;0.90;;
65039;SDS011;51606;45.000;38.612;2023-08-20T09:37:27;4.18;;;0.95;;
65039;SDS011;51606;45.000;38.612;2023-08-20T09:39:53;16.83;;;1.60;;
65039;SDS011;51606;45.000;38.612;2023-08-20T09:42:19;1.42;;;0.90;;
65039;SDS011;51606;45.000;38.612;2023-08-20T09:44:46;2.88;;;1.02;;
65039;SDS011;51606;45.000;38.612;2023-08-20T09:47:15;1.10;;;1.00;;
65039;SDS011;51606;45.000;38.612;2023-08-20T09:49:43;7.78;;;1.40;;
65039;SDS011;51606;45.000;38.612;2023-08-20T09:52:21;2.17;;;1.10;;
65039;SDS011;51606;45.000;38.612;2023-08-20T09:57:39;4.15;;;1.20;;
65039;SDS011;51606;45.000;38.612;2023-08-20T10:00:07;7.32;;;1.40;;
65039;SDS011;51606;45.000;38.612;2023-08-20T10:02:42;2.15;;;1.20;;
65039;SDS011;51606;45.000;38.612;2023-08-20T10:05:09;1.67;;;1.30;;
65039;SDS011;51606;45.000;38.612;2023-08-20T10:07:36;3.42;;;1.25;;
65039;SDS011;51606;45.000;38.612;2023-08-20T10:10:04;8.05;;;1.35;;
65039;SDS011;51606;45.000;38.612;2023-08-20T10:12:32;6.90;;;1.52;;
65039;SDS011;51606;45.000;38.612;2023-08-20T10:15:00;3.38;;;1.42;;
65039;SDS011;51606;45.000;38.612;2023-08-20T10:17:30;2.13;;;1.15;;
65039;SDS011;51606;45.000;38.612;2023-08-20T10:19:58;4.72;;;1.15;;
65039;SDS011;51606;45.000;38.612;2023-08-20T10:22:59;3.10;;;1.35;;
65039;SDS011;51606;45.000;38.612;2023-08-20T10:25:22;1.83;;;1.05;;
65039;SDS011;51606;45.000;38.612;2023-08-20T10:27:50;16.48;;;1.38;;
65039;SDS011;51606;45.000;38.612;2023-08-20T10:30:17;2.45;;;1.55;;
65039;SDS011;51606;45.000;38.612;2023-08-20T10:35:18;5.65;;;1.40;;
65039;SDS011;51606;45.000;38.612;2023-08-20T10:38:13;5.82;;;1.00;;
65039;SDS011;51606;45.000;38.612;2023-08-20T10:40:56;14.00;;;1.75;;
65039;SDS011;51606;45.000;38.612;2023-08-20T10:46:13;3.45;;;1.25;;
65039;SDS011;51606;45.000;38.612;2023-08-20T10:48:47;2.97;;;1.10;;
65039;SDS011;51606;45.000;38.612;2023-08-20T10:51:15;1.95;;;1.30;;
65039;SDS011;51606;45.000;38.612;2023-08-20T10:59:06;4.47;;;1.30;;
65039;SDS011;51606;45.000;38.612;2023-08-20T11:01:33;1.98;;;1.23;;
65039;SDS011;51606;45.000;38.612;2023-08-20T11:04:00;9.80;;;1.50;;
65039;SDS011;51606;45.000;38.612;2023-08-20T11:06:32;3.33;;;1.20;;
65039;SDS011;51606;45.000;38.612;2023-08-20T11:08:59;5.13;;;1.88;;
65039;SDS011;51606;45.000;38.612;2023-08-20T11:11:26;11.13;;;2.00;;
65039;SDS011;51606;45.000;38.612;2023-08-20T11:13:52;3.88;;;1.50;;
65039;SDS011;51606;45.000;38.612;2023-08-20T11:16:19;2.95;;;1.25;;
65039;SDS011;51606;45.000;38.612;2023-08-20T11:18:45;6.93;;;1.58;;
65039;SDS011;51606;45.000;38.612;2023-08-20T11:21:12;4.25;;;1.45;;
65039;SDS011;51606;45.000;38.612;2023-08-20T11:23:39;4.13;;;1.23;;
65039;SDS011;51606;45.000;38.612;2023-08-20T11:26:08;5.18;;;1.55;;
65039;SDS011;51606;45.000;38.612;2023-08-20T11:28:35;4.15;;;1.52;;
65039;SDS011;51606;45.000;38.612;2023-08-20T11:31:01;4.55;;;1.25;;
65039;SDS011;51606;45.000;38.612;2023-08-20T11:33:28;5.38;;;2.10;;
65039;SDS011;51606;45.000;38.612;2023-08-20T11:35:55;6.00;;;1.88;;
65039;SDS011;51606;45.000;38.612;2023-08-20T11:38:23;3.95;;;1.75;;
65039;SDS011;51606;45.000;38.612;2023-08-20T11:40:50;8.10;;;1.80;;
65039;SDS011;51606;45.000;38.612;2023-08-20T11:43:17;6.13;;;2.17;;
65039;SDS011;51606;45.000;38.612;2023-08-20T11:45:44;3.78;;;1.75;;
65039;SDS011;51606;45.000;38.612;2023-08-20T11:48:15;13.20;;;2.67;;
65039;SDS011;51606;45.000;38.612;2023-08-20T11:50:42;2.35;;;1.92;;
65039;SDS011;51606;45.000;38.612;2023-08-20T11:53:09;15.85;;;2.00;;
65039;SDS011;51606;45.000;38.612;2023-08-20T11:55:37;5.40;;;2.05;;
65039;SDS011;51606;45.000;38.612;2023-08-20T11:58:09;6.10;;;1.52;;
65039;SDS011;51606;45.000;38.612;2023-08-20T12:00:37;6.32;;;1.90;;
65039;SDS011;51606;45.000;38.612;2023-08-20T12:03:03;3.15;;;1.77;;
65039;SDS011;51606;45.000;38.612;2023-08-20T12:05:31;2.08;;;1.67;;
65039;SDS011;51606;45.000;38.612;2023-08-20T12:07:58;3.00;;;1.52;;
65039;SDS011;51606;45.000;38.612;2023-08-20T12:10:29;3.20;;;1.55;;
65039;SDS011;51606;45.000;38.612;2023-08-20T12:12:58;8.45;;;1.55;;
65039;SDS011;51606;45.000;38.612;2023-08-20T12:15:25;3.70;;;1.65;;
65039;SDS011;51606;45.000;38.612;2023-08-20T12:18:03;8.02;;;2.45;;
65039;SDS011;51606;45.000;38.612;2023-08-20T12:20:31;2.35;;;1.50;;
65039;SDS011;51606;45.000;38.612;2023-08-20T12:23:01;1.60;;;1.30;;
65039;SDS011;51606;45.000;38.612;2023-08-20T12:25:32;3.30;;;1.60;;
65039;SDS011;51606;45.000;38.612;2023-08-20T12:28:00;3.92;;;1.60;;
65039;SDS011;51606;45.000;38.612;2023-08-20T12:30:29;1.67;;;1.13;;
65039;SDS011;51606;45.000;38.612;2023-08-20T12:32:55;6.95;;;1.58;;
65039;SDS011;51606;45.000;38.612;2023-08-20T12:35:22;5.90;;;1.20;;
65039;SDS011;51606;45.000;38.612;2023-08-20T12:37:48;5.38;;;1.20;;
65039;SDS011;51606;45.000;38.612;2023-08-20T12:40:14;9.68;;;1.35;;
65039;SDS011;51606;45.000;38.612;2023-08-20T12:42:41;2.20;;;1.20;;
65039;SDS011;51606;45.000;38.612;2023-08-20T12:45:07;2.58;;;1.20;;
65039;SDS011;51606;45.000;38.612;2023-08-20T12:47:35;1.95;;;1.10;;
65039;SDS011;51606;45.000;38.612;2023-08-20T12:50:02;1.98;;;0.93;;
65039;SDS011;51606;45.000;38.612;2023-08-20T12:52:31;7.28;;;1.08;;
65039;SDS011;51606;45.000;38.612;2023-08-20T12:54:58;6.13;;;1.20;;
65039;SDS011;51606;45.000;38.612;2023-08-20T12:57:25;3.38;;;0.93;;
65039;SDS011;51606;45.000;38.612;2023-08-20T12:59:51;1.75;;;1.25;;
65039;SDS011;51606;45.000;38.612;2023-08-20T13:02:19;3.88;;;1.00;;
65039;SDS011;51606;45.000;38.612;2023-08-20T13:04:46;2.20;;;1.25;;
65039;SDS011;51606;45.000;38.612;2023-08-20T13:07:13;2.22;;;1.05;;
65039;SDS011;51606;45.000;38.612;2023-08-20T13:09:40;2.90;;;1.20;;
65039;SDS011;51606;45.000;38.612;2023-08-20T13:12:07;3.80;;;0.90;;
65039;SDS011;51606;45.000;38.612;2023-08-20T13:14:38;4.80;;;1.10;;
65039;SDS011;51606;45.000;38.612;2023-08-20T13:17:07;3.20;;;1.00;;
65039;SDS011;51606;45.000;38.612;2023-08-20T13:19:34;4.15;;;1.08;;
65039;SDS011;51606;45.000;38.612;2023-08-20T13:22:00;0.68;;;0.68;;
65039;SDS011;51606;45.000;38.612;2023-08-20T13:24:29;1.58;;;0.90;;
65039;SDS011;51606;45.000;38.612;2023-08-20T13:26:55;1.77;;;0.82;;
65039;SDS011;51606;45.000;38.612;2023-08-20T13:29:22;4.85;;;1.17;;
65039;SDS011;51606;45.000;38.612;2023-08-20T13:31:48;1.08;;;0.85;;
65039;SDS011;51606;45.000;38.612;2023-08-20T13:34:15;1.25;;;0.80;;
65039;SDS011;51606;45.000;38.612;2023-08-20T13:36:41;3.28;;;1.00;;
65039;SDS011;51606;45.000;38.612;2023-08-20T13:39:08;0.77;;;0.68;;
65039;SDS011;51606;45.000;38.612;2023-08-20T13:41:34;4.43;;;1.33;;
65039;SDS011;51606;45.000;38.612;2023-08-20T13:44:00;3.58;;;1.20;;
65039;SDS011;51606;45.000;38.612;2023-08-20T13:46:27;0.98;;;0.80;;
65039;SDS011;51606;45.000;38.612;2023-08-20T13:48:54;5.30;;;1.08;;
65039;SDS011;51606;45.000;38.612;2023-08-20T13:51:20;21.98;;;1.80;;
65039;SDS011;51606;45.000;38.612;2023-08-20T13:53:46;9.52;;;1.30;;
65039;SDS011;51606;45.000;38.612;2023-08-20T13:56:13;4.90;;;1.13;;
65039;SDS011;51606;45.000;38.612;2023-08-20T13:58:39;7.55;;;1.00;;
65039;SDS011;51606;45.000;38.612;2023-08-20T14:01:05;8.98;;;1.00;;
65039;SDS011;51606;45.000;38.612;2023-08-20T14:03:32;5.60;;;1.20;;
65039;SDS011;51606;45.000;38.612;2023-08-20T14:05:58;5.90;;;2.55;;
65039;SDS011;51606;45.000;38.612;2023-08-20T14:08:25;2.47;;;1.02;;
65039;SDS011;51606;45.000;38.612;2023-08-20T14:10:51;2.90;;;1.10;;
65039;SDS011;51606;45.000;38.612;2023-08-20T14:13:18;1.48;;;1.00;;
65039;SDS011;51606;45.000;38.612;2023-08-20T14:15:44;8.70;;;0.98;;
65039;SDS011;51606;45.000;38.612;2023-08-20T14:18:10;1.65;;;1.20;;
65039;SDS011;51606;45.000;38.612;2023-08-20T14:20:37;3.00;;;1.92;;
65039;SDS011;51606;45.000;38.612;2023-08-20T14:23:03;5.70;;;1.70;;
65039;SDS011;51606;45.000;38.612;2023-08-20T14:25:30;13.05;;;1.80;;
65039;SDS011;51606;45.000;38.612;2023-08-20T14:27:57;2.97;;;1.35;;
65039;SDS011;51606;45.000;38.612;2023-08-20T14:30:23;7.63;;;1.33;;
65039;SDS011;51606;45.000;38.612;2023-08-20T14:32:49;2.72;;;1.40;;
65039;SDS011;51606;45.000;38.612;2023-08-20T14:35:16;2.25;;;1.25;;
65039;SDS011;51606;45.000;38.612;2023-08-20T14:37:42;1.45;;;1.02;;
65039;SDS011;51606;45.000;38.612;2023-08-20T14:40:09;2.42;;;1.17;;
65039;SDS011;51606;45.000;38.612;2023-08-20T14:42:36;3.13;;;1.42;;
65039;SDS011;51606;45.000;38.612;2023-08-20T14:45:02;4.93;;;1.30;;
65039;SDS011;51606;45.000;38.612;2023-08-20T14:47:30;56.08;;;4.30;;
65039;SDS011;51606;45.000;38.612;2023-08-20T14:50:06;9.00;;;1.08;;
65039;SDS011;51606;45.000;38.612;2023-08-20T14:52:34;8.65;;;1.38;;
65039;SDS011;51606;45.000;38.612;2023-08-20T14:55:00;1.80;;;1.17;;
65039;SDS011;51606;45.000;38.612;2023-08-20T14:57:27;2.20;;;1.15;;